createdAt,value
2023-05-02T00:02:03.144Z,101951.88
2023-05-02T00:04:29.731Z,101954.38
2023-05-02T00:06:56.283Z,101950.81
2023-05-02T00:09:22.950Z,101953.50
2023-05-02T00:11:49.364Z,101953.53
2023-05-02T00:14:15.801Z,101960.16
2023-05-02T00:16:42.197Z,101960.53
2023-05-02T00:19:08.567Z,101962.25
2023-05-02T00:21:34.959Z,101969.38
2023-05-02T00:24:01.386Z,101965.09
2023-05-02T00:29:19.577Z,101972.78
2023-05-02T00:31:45.962Z,101978.56
2023-05-02T00:34:12.304Z,101991.19
2023-05-02T00:36:38.678Z,101991.78
2023-05-02T00:39:05.363Z,101997.03
2023-05-02T00:41:31.758Z,101997.72
2023-05-02T00:43:58.503Z,101976.97
2023-05-02T00:46:25.035Z,101995.88
2023-05-02T00:48:51.448Z,102001.94
2023-05-02T00:51:18.294Z,102006.44
2023-05-02T00:53:45.013Z,101958.94
2023-05-02T00:56:11.539Z,102006.09
2023-05-02T00:58:41.535Z,101998.22
2023-05-02T01:01:33.238Z,101989.69
2023-05-02T01:03:59.767Z,102006.94
2023-05-02T01:06:48.457Z,102008.84
2023-05-02T01:09:39.516Z,102003.13
2023-05-02T01:12:21.058Z,102010.59
2023-05-02T01:14:52.876Z,102004.44
2023-05-02T01:17:20.274Z,102000.91
2023-05-02T01:19:54.282Z,102006.41
2023-05-02T01:22:22.441Z,101999.06
2023-05-02T01:24:54.565Z,102004.69
2023-05-02T01:27:49.717Z,102008.63
2023-05-02T01:30:18.853Z,102006.03
2023-05-02T01:32:47.210Z,102016.56
2023-05-02T01:35:18.125Z,102014.81
2023-05-02T01:37:47.150Z,102009.16
2023-05-02T01:40:17.976Z,102022.16
2023-05-02T01:42:45.853Z,102033.28
2023-05-02T01:45:13.136Z,102029.03
2023-05-02T01:47:41.661Z,102031.53
2023-05-02T01:50:10.653Z,102025.44
2023-05-02T01:52:38.487Z,102031.84
2023-05-02T01:55:08.057Z,102028.81
2023-05-02T01:57:37.382Z,102040.19
2023-05-02T02:00:06.288Z,102043.63
2023-05-02T02:02:34.900Z,102050.34
2023-05-02T02:05:04.695Z,102030.41
2023-05-02T02:07:31.548Z,102057.97
2023-05-02T02:09:58.234Z,102047.38
2023-05-02T02:12:28.285Z,102076.25
2023-05-02T02:15:06.611Z,102083.91
2023-05-02T02:17:39.641Z,102084.47
2023-05-02T02:20:09.513Z,102093.94
2023-05-02T02:22:39.397Z,102095.09
2023-05-02T02:25:10.331Z,102103.00
2023-05-02T02:27:38.100Z,102089.75
2023-05-02T02:30:05.897Z,102082.09
2023-05-02T02:32:32.329Z,102112.06
2023-05-02T02:34:59.509Z,102086.56
2023-05-02T02:37:41.165Z,102129.25
2023-05-02T02:40:42.109Z,102132.91
2023-05-02T02:43:39.469Z,102135.78
2023-05-02T02:46:21.054Z,102145.69
2023-05-02T02:48:58.462Z,102159.63
2023-05-02T02:51:50.304Z,102158.31
2023-05-02T02:54:39.879Z,102162.00
2023-05-02T02:57:15.063Z,102168.38
2023-05-02T02:59:49.678Z,102168.84
2023-05-02T03:02:19.353Z,102170.78
2023-05-02T03:04:47.249Z,102175.56
2023-05-02T03:07:13.825Z,102177.75
2023-05-02T03:09:43.962Z,102182.47
2023-05-02T03:12:10.803Z,102188.31
2023-05-02T03:14:38.082Z,102157.28
2023-05-02T03:17:04.972Z,102203.03
2023-05-02T03:19:31.515Z,102208.22
2023-05-02T03:21:57.931Z,102203.94
2023-05-02T03:24:24.376Z,102215.38
2023-05-02T03:26:59.057Z,102209.06
2023-05-02T03:29:26.498Z,102222.06
2023-05-02T03:31:52.898Z,102217.03
2023-05-02T03:34:21.845Z,102229.34
2023-05-02T03:36:48.319Z,102227.59
2023-05-02T03:39:15.224Z,102230.41
2023-05-02T03:41:42.384Z,102232.75
2023-05-02T03:44:08.794Z,102247.63
2023-05-02T03:46:36.715Z,102255.44
2023-05-02T03:49:03.171Z,102256.19
2023-05-02T03:51:29.532Z,102261.28
2023-05-02T03:53:55.895Z,102256.31
2023-05-02T03:56:22.334Z,102258.53
2023-05-02T03:58:49.027Z,102258.81
2023-05-02T04:01:16.456Z,102276.31
2023-05-02T04:03:43.474Z,102253.97
2023-05-02T04:06:10.172Z,102285.31
2023-05-02T04:08:36.978Z,102290.69
2023-05-02T04:11:03.339Z,102291.03
2023-05-02T04:13:29.756Z,102294.28
2023-05-02T04:15:56.331Z,102307.13
2023-05-02T04:18:22.742Z,102309.66
2023-05-02T04:20:50.135Z,102324.03
2023-05-02T04:23:17.543Z,102282.91
2023-05-02T04:25:54.788Z,102307.03
2023-05-02T04:28:22.232Z,102321.94
2023-05-02T04:30:51.966Z,102329.06
2023-05-02T04:33:18.764Z,102332.34
2023-05-02T04:35:45.241Z,102321.66
2023-05-02T04:38:11.614Z,102338.28
2023-05-02T04:40:38.071Z,102332.94
2023-05-02T04:43:04.865Z,102310.78
2023-05-02T04:45:31.241Z,102323.94
2023-05-02T04:47:57.728Z,102353.47
2023-05-02T04:50:24.214Z,102362.91
2023-05-02T04:52:50.573Z,102369.81
2023-05-02T04:55:17.007Z,102368.84
2023-05-02T04:57:43.383Z,102373.34
2023-05-02T05:00:10.226Z,102372.75
2023-05-02T05:02:36.956Z,102380.41
2023-05-02T05:05:04.361Z,102380.03
2023-05-02T05:07:30.944Z,102383.72
2023-05-02T05:09:57.417Z,102385.88
2023-05-02T05:12:23.981Z,102393.44
2023-05-02T05:14:50.630Z,102398.50
2023-05-02T05:17:17.177Z,102405.97
2023-05-02T05:19:43.646Z,102403.88
2023-05-02T05:22:10.044Z,102406.81
2023-05-02T05:24:36.436Z,102413.16
2023-05-02T05:27:02.942Z,102414.75
2023-05-02T05:29:31.580Z,102417.78
2023-05-02T05:31:58.020Z,102424.59
2023-05-02T05:34:25.132Z,102430.59
2023-05-02T05:36:51.873Z,102425.47
2023-05-02T05:39:18.443Z,102430.47
2023-05-02T05:41:44.814Z,102441.56
2023-05-02T05:44:11.236Z,102447.78
2023-05-02T05:46:37.939Z,102447.63
2023-05-02T05:49:04.380Z,102455.06
2023-05-02T05:51:31.455Z,102462.88
2023-05-02T05:53:57.941Z,102457.41
2023-05-02T05:56:24.325Z,102475.06
2023-05-02T05:58:50.736Z,102467.50
2023-05-02T06:01:17.162Z,102475.91
2023-05-02T06:03:43.547Z,102467.41
2023-05-02T06:06:10.064Z,102470.94
2023-05-02T06:08:36.578Z,102485.53
2023-05-02T06:11:02.963Z,102485.06
2023-05-02T06:13:29.372Z,102495.16
2023-05-02T06:16:00.886Z,102500.53
2023-05-02T06:18:27.353Z,102502.34
2023-05-02T06:20:53.828Z,102505.84
2023-05-02T06:23:20.212Z,102510.75
2023-05-02T06:25:46.576Z,102520.69
2023-05-02T06:28:12.940Z,102516.28
2023-05-02T06:30:39.309Z,102511.53
2023-05-02T06:33:05.900Z,102500.59
2023-05-02T06:35:32.313Z,102511.22
2023-05-02T06:37:58.741Z,102514.59
2023-05-02T06:40:25.237Z,102515.53
2023-05-02T06:42:51.662Z,102522.19
2023-05-02T06:45:18.107Z,102532.22
2023-05-02T06:47:44.498Z,102541.09
2023-05-02T06:50:11.513Z,102537.34
2023-05-02T06:52:37.905Z,102544.47
2023-05-02T06:55:05.477Z,102550.50
2023-05-02T06:57:31.954Z,102551.84
2023-05-02T06:59:58.870Z,102560.78
2023-05-02T07:02:25.500Z,102561.34
2023-05-02T07:04:51.939Z,102565.50
2023-05-02T07:07:20.485Z,102565.59
2023-05-02T07:09:46.927Z,102565.06
2023-05-02T07:12:13.283Z,102560.03
2023-05-02T07:14:39.740Z,102560.72
2023-05-02T07:17:06.378Z,102570.22
2023-05-02T07:19:33.170Z,102581.50
2023-05-02T07:21:59.608Z,102585.69
2023-05-02T07:24:26.341Z,102586.88
2023-05-02T07:26:52.766Z,102584.06
2023-05-02T07:29:19.152Z,102587.13
2023-05-02T07:31:45.633Z,102579.78
2023-05-02T07:34:12.401Z,102592.31
2023-05-02T07:36:38.970Z,102598.56
2023-05-02T07:39:05.337Z,102597.09
2023-05-02T07:41:31.724Z,102579.63
2023-05-02T07:43:58.167Z,102597.78
2023-05-02T07:46:24.710Z,102603.47
2023-05-02T07:48:51.179Z,102595.41
2023-05-02T07:51:20.248Z,102605.63
2023-05-02T07:53:46.925Z,102611.22
2023-05-02T07:56:13.428Z,102608.78
2023-05-02T07:58:39.794Z,102600.06
2023-05-02T08:01:06.228Z,102616.56
2023-05-02T08:03:32.714Z,102610.88
2023-05-02T08:05:59.219Z,102615.81
2023-05-02T08:08:25.765Z,102612.16
2023-05-02T08:10:52.127Z,102628.97
2023-05-02T08:13:18.563Z,102631.13
2023-05-02T08:15:45.079Z,102626.19
2023-05-02T08:18:11.712Z,102630.38
2023-05-02T08:20:38.224Z,102643.09
2023-05-02T08:23:04.615Z,102636.06
2023-05-02T08:25:31.010Z,102642.72
2023-05-02T08:27:57.389Z,102648.88
2023-05-02T08:30:23.806Z,102645.75
2023-05-02T08:32:51.365Z,102647.75
2023-05-02T09:01:49.580Z,102679.53
2023-05-02T09:04:17.759Z,102682.53
2023-05-02T09:06:44.220Z,102681.97
2023-05-02T09:09:11.035Z,102671.56
2023-05-02T09:11:37.684Z,102692.03
2023-05-02T09:14:14.874Z,102688.41
2023-05-02T09:16:41.354Z,102694.88
2023-05-02T09:19:07.730Z,102693.09
2023-05-02T09:21:42.074Z,102705.47
2023-05-02T09:24:22.420Z,102710.06
2023-05-02T09:27:02.596Z,102703.56
2023-05-02T09:29:36.041Z,102695.44
2023-05-02T09:32:03.973Z,102696.59
2023-05-02T09:34:33.707Z,102712.19
2023-05-02T09:37:00.199Z,102709.75
2023-05-02T09:39:30.803Z,102717.88
2023-05-02T09:41:58.410Z,102705.63
2023-05-02T09:44:26.962Z,102691.03
2023-05-02T09:46:56.198Z,102712.03
2023-05-02T09:53:08.345Z,102730.56
2023-05-02T09:55:35.019Z,102713.03
2023-05-02T09:58:01.706Z,102732.50
2023-05-02T10:00:40.481Z,102729.75
2023-05-02T10:03:08.479Z,102731.84
2023-05-02T10:05:38.974Z,102737.19
2023-05-02T10:08:10.264Z,102748.50
2023-05-02T10:10:39.040Z,102731.72
2023-05-02T10:13:06.722Z,102740.47
2023-05-02T10:15:36.793Z,102742.66
2023-05-02T10:18:13.274Z,102741.56
2023-05-02T10:20:56.787Z,102734.03
2023-05-02T10:23:26.762Z,102735.97
2023-05-02T10:25:53.997Z,102741.75
2023-05-02T10:28:20.766Z,102747.53
2023-05-02T10:30:49.708Z,102757.47
2023-05-02T10:33:19.081Z,102763.16
2023-05-02T10:35:49.395Z,102760.66
2023-05-02T10:38:22.553Z,102768.56
2023-05-02T10:40:57.922Z,102781.03
2023-05-02T10:43:26.940Z,102769.41
2023-05-02T10:45:54.464Z,102766.41
2023-05-02T10:48:23.671Z,102774.78
2023-05-02T10:50:51.599Z,102769.47
2023-05-02T10:53:33.048Z,102777.22
2023-05-02T10:56:24.001Z,102767.78
2023-05-02T10:58:52.384Z,102767.72
2023-05-02T11:01:30.975Z,102763.28
2023-05-02T11:04:02.181Z,102768.09
2023-05-02T11:06:34.796Z,102785.72
2023-05-02T11:09:31.702Z,102788.22
2023-05-02T11:11:58.723Z,102784.16
2023-05-02T11:14:30.937Z,102787.22
2023-05-02T11:17:06.362Z,102779.44
2023-05-02T11:19:38.739Z,102786.47
2023-05-02T11:22:28.104Z,102791.03
2023-05-02T11:24:54.489Z,102797.06
2023-05-02T11:27:30.048Z,102794.41
2023-05-02T11:30:06.797Z,102789.38
2023-05-02T11:32:45.682Z,102792.06
2023-05-02T11:35:23.880Z,102793.09
2023-05-02T11:37:54.281Z,102791.84
2023-05-02T11:40:20.904Z,102786.03
2023-05-02T11:42:47.716Z,102791.97
2023-05-02T11:45:14.265Z,102797.84
2023-05-02T11:47:42.087Z,102800.66
2023-05-02T11:50:09.608Z,102800.06
2023-05-02T11:52:40.326Z,102792.53
2023-05-02T11:55:10.422Z,102790.44
2023-05-02T11:57:38.576Z,102792.84
2023-05-02T12:00:06.369Z,102801.06
2023-05-02T12:02:59.073Z,102808.47
2023-05-02T12:05:32.766Z,102814.13
2023-05-02T12:08:01.112Z,102804.63
2023-05-02T12:10:37.568Z,102798.03
2023-05-02T12:13:05.583Z,102796.63
2023-05-02T12:15:32.315Z,102794.72
2023-05-02T12:17:59.245Z,102814.59
2023-05-02T12:20:25.858Z,102825.28
2023-05-02T12:22:52.462Z,102836.03
2023-05-02T12:25:19.113Z,102823.06
2023-05-02T12:28:02.279Z,102833.63
2023-05-02T12:30:30.085Z,102826.06
2023-05-02T12:33:01.720Z,102844.38
2023-05-02T12:35:30.312Z,102846.19
2023-05-02T12:38:11.071Z,102844.78
2023-05-02T12:40:37.577Z,102845.13
2023-05-02T12:43:07.243Z,102840.56
2023-05-02T12:45:34.648Z,102839.06
2023-05-02T12:48:02.362Z,102854.84
2023-05-02T12:50:40.958Z,102845.03
2023-05-02T12:53:07.659Z,102836.75
2023-05-02T12:55:34.306Z,102850.19
2023-05-02T12:58:05.497Z,102841.97
2023-05-02T13:00:33.514Z,102848.22
2023-05-02T13:03:00.178Z,102852.50
2023-05-02T13:05:26.980Z,102854.75
2023-05-02T13:07:53.557Z,102861.00
2023-05-02T13:10:19.926Z,102860.63
2023-05-02T13:12:47.062Z,102867.72
2023-05-02T13:15:14.889Z,102857.50
2023-05-02T13:17:41.559Z,102868.97
2023-05-02T13:20:09.381Z,102873.81
2023-05-02T13:22:37.250Z,102872.06
2023-05-02T13:25:04.963Z,102869.50
2023-05-02T13:27:31.451Z,102867.72
2023-05-02T13:29:57.870Z,102847.91
2023-05-02T13:32:24.320Z,102868.66
2023-05-02T13:34:50.788Z,102875.44
2023-05-02T13:37:17.171Z,102875.41
2023-05-02T13:39:43.563Z,102842.47
2023-05-02T13:42:09.968Z,102875.50
2023-05-02T13:44:36.485Z,102884.22
2023-05-02T13:47:03.024Z,102855.28
2023-05-02T13:49:29.895Z,102891.44
2023-05-02T13:51:56.478Z,102893.66
2023-05-02T13:54:22.851Z,102891.94
2023-05-02T13:56:49.240Z,102908.50
2023-05-02T13:59:15.597Z,102904.81
2023-05-02T14:01:42.269Z,102903.09
2023-05-02T14:04:09.196Z,102897.34
2023-05-02T14:06:36.046Z,102896.69
2023-05-02T14:09:02.859Z,102905.25
2023-05-02T14:11:29.649Z,102898.72
2023-05-02T14:13:58.163Z,102878.34
2023-05-02T14:16:24.632Z,102893.94
2023-05-02T14:18:51.192Z,102896.97
2023-05-02T14:21:17.628Z,102881.50
2023-05-02T14:23:44.010Z,102884.94
2023-05-02T14:26:10.433Z,102892.47
2023-05-02T14:28:38.486Z,102891.19
2023-05-02T14:31:06.297Z,102893.72
2023-05-02T14:33:32.716Z,102907.75
2023-05-02T14:35:59.098Z,102888.69
2023-05-02T14:38:25.469Z,102884.59
2023-05-02T14:40:51.897Z,102891.88
2023-05-02T14:43:18.255Z,102897.69
2023-05-02T14:45:44.627Z,102902.31
2023-05-02T14:48:13.913Z,102897.13
2023-05-02T14:50:40.921Z,102901.56
2023-05-02T14:53:07.314Z,102901.91
2023-05-02T14:55:40.337Z,102909.91
2023-05-02T14:58:10.863Z,102900.75
2023-05-02T15:00:38.550Z,102909.94
2023-05-02T15:03:07.668Z,102908.00
2023-05-02T15:05:36.579Z,102915.09
2023-05-02T15:08:03.218Z,102921.88
2023-05-02T15:10:29.658Z,102915.03
2023-05-02T15:12:56.239Z,102904.50
2023-05-02T15:15:25.038Z,102916.97
2023-05-02T15:17:52.826Z,102917.28
2023-05-02T15:20:19.778Z,102913.34
2023-05-02T15:22:46.267Z,102919.50
2023-05-02T15:25:12.732Z,102911.91
2023-05-02T15:27:39.112Z,102926.53
2023-05-02T15:30:08.939Z,102893.16
2023-05-02T15:32:35.697Z,102935.75
2023-05-02T15:35:02.389Z,102934.88
2023-05-02T15:37:28.742Z,102940.16
2023-05-02T15:39:55.298Z,102944.31
2023-05-02T15:42:21.869Z,102935.06
2023-05-02T15:44:48.281Z,102953.78
2023-05-02T15:47:14.716Z,102960.19
2023-05-02T15:49:41.685Z,102940.09
2023-05-02T15:52:08.075Z,102949.56
2023-05-02T15:54:34.529Z,102948.16
2023-05-02T15:57:02.429Z,102949.00
2023-05-02T15:59:28.908Z,102940.88
2023-05-02T16:01:55.766Z,102943.03
2023-05-02T16:04:22.764Z,102940.34
2023-05-02T16:06:49.239Z,102954.78
2023-05-02T16:09:15.781Z,102946.31
2023-05-02T16:11:42.353Z,102953.88
2023-05-02T16:14:08.762Z,102948.53
2023-05-02T16:16:35.466Z,102949.34
2023-05-02T16:19:01.921Z,102952.28
2023-05-02T16:21:28.307Z,102943.47
2023-05-02T16:23:55.084Z,102948.56
2023-05-02T16:26:21.607Z,102940.81
2023-05-02T16:28:48.037Z,102956.50
2023-05-02T16:31:15.192Z,102937.25
2023-05-02T16:33:42.820Z,102942.81
2023-05-02T16:36:09.689Z,102944.25
2023-05-02T16:38:36.602Z,102960.97
2023-05-02T16:41:05.070Z,102958.84
2023-05-02T16:43:31.505Z,102958.69
2023-05-02T16:46:02.372Z,102961.50
2023-05-02T16:48:29.185Z,102960.72
2023-05-02T16:50:55.881Z,102956.50
2023-05-02T16:53:22.420Z,102957.91
2023-05-02T16:55:48.832Z,102958.38
2023-05-02T16:58:15.493Z,102952.16
2023-05-02T17:00:41.940Z,102964.63
2023-05-02T17:03:08.775Z,102951.66
2023-05-02T17:05:35.719Z,102967.88
2023-05-02T17:08:02.242Z,102968.28
2023-05-02T17:10:28.669Z,102970.94
2023-05-02T17:12:56.158Z,102987.16
2023-05-02T17:15:23.014Z,102981.31
2023-05-02T17:17:49.477Z,102971.66
2023-05-02T17:20:17.277Z,102983.53
2023-05-02T17:22:43.766Z,102992.06
2023-05-02T17:25:10.829Z,102991.94
2023-05-02T17:27:40.581Z,102989.09
2023-05-02T17:30:08.164Z,102996.06
2023-05-02T17:32:37.331Z,102987.66
2023-05-02T17:35:03.911Z,102989.06
2023-05-02T17:37:30.306Z,102999.50
2023-05-02T17:39:56.804Z,102992.94
2023-05-02T17:42:23.184Z,102983.66
2023-05-02T17:44:49.580Z,102999.47
2023-05-02T17:47:18.062Z,103003.75
2023-05-02T17:49:45.402Z,103000.47
2023-05-02T17:52:11.795Z,103007.25
2023-05-02T17:54:38.204Z,103009.59
2023-05-02T17:57:04.640Z,103004.69
2023-05-02T17:59:31.420Z,103023.38
2023-05-02T18:01:58.262Z,103018.00
2023-05-02T18:04:25.452Z,103015.31
2023-05-02T18:06:52.375Z,102992.84
2023-05-02T18:09:19.198Z,103008.72
2023-05-02T18:11:45.685Z,103017.91
2023-05-02T18:14:12.062Z,103025.25
2023-05-02T18:16:38.960Z,102998.72
2023-05-02T18:19:05.408Z,103022.91
2023-05-02T18:21:35.163Z,103030.03
2023-05-02T18:24:01.538Z,103030.25
2023-05-02T18:26:27.937Z,103032.34
2023-05-02T18:28:54.387Z,103030.25
2023-05-02T18:31:21.197Z,103010.06
2023-05-02T18:33:47.776Z,103042.41
2023-05-02T18:36:19.079Z,103041.97
2023-05-02T18:38:45.725Z,103033.41
2023-05-02T18:41:12.347Z,103040.00
2023-05-02T18:43:38.744Z,103044.28
2023-05-02T18:46:05.174Z,103041.34
2023-05-02T18:48:32.298Z,103037.53
2023-05-02T18:50:58.860Z,103045.88
2023-05-02T18:53:26.399Z,103038.41
2023-05-02T18:55:56.476Z,103032.91
2023-05-02T18:58:22.885Z,103033.41
2023-05-02T19:00:50.093Z,103032.91
2023-05-02T19:03:16.803Z,103042.72
2023-05-02T19:05:43.788Z,103040.28
2023-05-02T19:08:10.556Z,103038.31
2023-05-02T19:10:36.993Z,103040.50
2023-05-02T19:13:03.706Z,103036.59
2023-05-02T19:15:30.144Z,103014.63
2023-05-02T19:17:56.965Z,103043.47
2023-05-02T19:20:23.422Z,103049.41
2023-05-02T19:22:50.032Z,103049.13
2023-05-02T19:25:16.513Z,103054.72
2023-05-02T19:27:45.084Z,103026.31
2023-05-02T19:30:14.381Z,103042.72
2023-05-02T19:32:41.476Z,103034.50
2023-05-02T19:35:09.077Z,103069.75
2023-05-02T19:37:35.483Z,103066.31
2023-05-02T19:40:01.992Z,103057.94
2023-05-02T19:42:28.794Z,103071.56
2023-05-02T19:44:55.292Z,103067.38
2023-05-02T19:47:22.387Z,103072.31
2023-05-02T19:49:51.054Z,103074.22
2023-05-02T19:52:17.485Z,103072.53
2023-05-02T19:54:43.856Z,103069.09
2023-05-02T19:57:10.281Z,103071.91
2023-05-02T19:59:36.664Z,103075.31
2023-05-02T20:02:03.342Z,103078.50
2023-05-02T20:04:29.931Z,103073.94
2023-05-02T20:06:56.364Z,103083.53
2023-05-02T20:09:22.897Z,103079.50
2023-05-02T20:11:49.372Z,103087.34
2023-05-02T20:14:17.309Z,103082.84
2023-05-02T20:16:43.947Z,103087.81
2023-05-02T20:19:10.484Z,103088.81
2023-05-02T20:21:36.951Z,103092.66
2023-05-02T20:24:03.809Z,103088.97
2023-05-02T20:26:31.350Z,103075.31
2023-05-02T20:28:58.790Z,103094.47
2023-05-02T20:31:26.375Z,103106.03
2023-05-02T20:33:52.876Z,103090.47
2023-05-02T20:36:19.397Z,103093.41
2023-05-02T20:38:47.828Z,103095.72
2023-05-02T20:41:14.631Z,103097.84
2023-05-02T20:43:44.535Z,103059.47
2023-05-02T20:46:12.327Z,103102.47
2023-05-02T20:48:38.893Z,103105.06
2023-05-02T20:51:05.294Z,103108.78
2023-05-02T20:53:31.679Z,103111.09
2023-05-02T20:55:58.045Z,103117.53
2023-05-02T20:58:24.399Z,103114.53
2023-05-02T21:00:52.538Z,103122.72
2023-05-02T21:03:22.152Z,103127.03
2023-05-02T21:05:55.803Z,103121.91
2023-05-02T21:08:22.940Z,103116.44
2023-05-02T21:10:49.384Z,103113.88
2023-05-02T21:13:15.791Z,103121.91
2023-05-02T21:15:42.360Z,103120.47
2023-05-02T21:18:08.908Z,103119.88
2023-05-02T21:20:35.999Z,103119.22
2023-05-02T21:23:02.443Z,103120.66
2023-05-02T21:25:28.925Z,103109.84
2023-05-02T21:27:56.378Z,103131.91
2023-05-02T21:30:24.214Z,103129.41
2023-05-02T21:32:50.853Z,103124.28
2023-05-02T21:35:17.371Z,103123.69
2023-05-02T21:37:43.807Z,103125.31
2023-05-02T21:40:10.756Z,103124.25
2023-05-02T21:42:37.114Z,103123.44
2023-05-02T21:45:03.658Z,103111.00
2023-05-02T21:47:30.193Z,103107.28
2023-05-02T21:49:57.203Z,103124.56
2023-05-02T21:52:23.607Z,103125.59
2023-05-02T21:54:52.370Z,103111.47
2023-05-02T21:57:21.429Z,103121.13
2023-05-02T21:59:48.107Z,103127.84
2023-05-02T22:02:14.619Z,103123.28
2023-05-02T22:04:41.221Z,103111.28
2023-05-02T22:07:07.622Z,103110.13
2023-05-02T22:09:34.036Z,103117.28
2023-05-02T22:12:00.472Z,103103.81
2023-05-02T22:14:33.849Z,103121.84
2023-05-02T22:17:08.159Z,103115.09
2023-05-02T22:19:34.551Z,103121.72
2023-05-02T22:22:01.605Z,103115.59
2023-05-02T22:24:28.757Z,103118.44
2023-05-02T22:26:58.116Z,103109.75
2023-05-02T22:29:24.501Z,103123.69
2023-05-02T22:31:52.038Z,103116.59
2023-05-02T22:34:19.044Z,103114.31
2023-05-02T22:36:45.955Z,103118.28
2023-05-02T22:39:14.348Z,103102.38
2023-05-02T22:41:43.718Z,103119.06
2023-05-02T22:44:11.298Z,103119.97
2023-05-02T22:46:38.419Z,103113.41
2023-05-02T22:49:07.649Z,103115.25
2023-05-02T22:51:34.074Z,103119.63
2023-05-02T22:54:00.533Z,103123.94
2023-05-02T22:56:27.216Z,103116.22
2023-05-02T22:58:53.627Z,103122.41
2023-05-02T23:01:20.110Z,103126.78
2023-05-02T23:03:46.759Z,103116.97
2023-05-02T23:06:13.261Z,103120.81
2023-05-02T23:08:40.087Z,103113.16
2023-05-02T23:11:06.506Z,103122.41
2023-05-02T23:13:32.886Z,103120.44
2023-05-02T23:15:59.404Z,103124.16
2023-05-02T23:18:25.855Z,103115.59
2023-05-02T23:20:52.263Z,103121.69
2023-05-02T23:23:18.697Z,103114.41
2023-05-02T23:25:45.164Z,103116.84
2023-05-02T23:28:12.090Z,103127.22
2023-05-02T23:30:40.112Z,103098.88
2023-05-02T23:33:06.675Z,103114.75
2023-05-02T23:35:33.622Z,103105.09
2023-05-02T23:38:00.793Z,103113.91
2023-05-02T23:40:28.172Z,103121.88
2023-05-02T23:42:54.567Z,103125.19
2023-05-02T23:45:21.157Z,103118.66
2023-05-02T23:47:47.731Z,103123.13
2023-05-02T23:50:14.609Z,103127.44
2023-05-02T23:52:41.001Z,103131.88
2023-05-02T23:55:10.367Z,103141.59
2023-05-02T23:57:37.404Z,103134.25
